createdAt,value
2022-12-12T00:02:34.136Z,52.75
2022-12-12T00:05:56.094Z,51.87
2022-12-12T00:09:17.909Z,54.28
2022-12-12T00:12:40.258Z,53.32
2022-12-12T00:16:03.714Z,52.87
2022-12-12T00:19:25.959Z,52.72
2022-12-12T00:22:47.821Z,53.97
2022-12-12T00:26:21.933Z,54.08
2022-12-12T00:29:43.860Z,54.51
2022-12-12T00:33:05.829Z,53.56
2022-12-12T00:36:31.137Z,54.85
2022-12-12T00:39:53.349Z,57.68
2022-12-12T00:43:15.774Z,54.44
2022-12-12T00:46:37.737Z,54.60
2022-12-12T00:49:59.877Z,54.63
2022-12-12T00:53:23.469Z,54.50
2022-12-12T00:56:45.424Z,54.90
2022-12-12T01:00:13.813Z,53.47
2022-12-12T01:03:38.775Z,55.39
2022-12-12T01:07:01.193Z,54.41
2022-12-12T01:10:23.171Z,53.35
2022-12-12T01:13:47.906Z,53.68
2022-12-12T01:17:09.688Z,52.11
2022-12-12T01:20:31.730Z,52.04
2022-12-12T01:23:53.689Z,52.28
2022-12-12T01:27:15.508Z,49.95
2022-12-12T01:30:37.503Z,52.50
2022-12-12T01:33:59.305Z,53.10
2022-12-12T01:37:21.134Z,50.96
2022-12-12T01:40:42.965Z,51.47
2022-12-12T01:44:46.395Z,51.11
2022-12-12T01:48:08.271Z,52.28
2022-12-12T01:51:31.016Z,51.26
2022-12-12T01:54:59.641Z,52.06
2022-12-12T01:58:21.692Z,51.99
2022-12-12T02:01:44.911Z,52.40
2022-12-12T02:05:33.427Z,55.49
2022-12-12T02:09:01.313Z,50.68
2022-12-12T02:12:23.107Z,49.38
2022-12-12T02:16:11.332Z,50.03
2022-12-12T02:20:26.841Z,52.85
2022-12-12T02:23:57.802Z,58.06
2022-12-12T02:27:44.756Z,61.80
2022-12-12T02:31:43.722Z,61.13
2022-12-12T02:35:41.241Z,61.26
2022-12-12T02:39:37.775Z,56.71
2022-12-12T02:43:35.072Z,58.45
2022-12-12T02:47:26.569Z,54.77
2022-12-12T02:50:53.235Z,62.15
2022-12-12T02:54:20.592Z,55.05
2022-12-12T02:57:42.709Z,53.36
2022-12-12T03:01:23.109Z,51.85
2022-12-12T03:05:20.747Z,55.65
2022-12-12T03:09:13.483Z,60.02
2022-12-12T03:13:01.666Z,54.38
2022-12-12T03:16:38.388Z,57.75
2022-12-12T03:20:23.225Z,63.15
2022-12-12T03:23:51.153Z,60.62
2022-12-12T03:27:31.369Z,62.89
2022-12-12T03:31:00.412Z,62.07
2022-12-12T03:34:30.160Z,55.61
2022-12-12T03:38:08.595Z,54.27
2022-12-12T03:41:43.333Z,54.00
2022-12-12T03:45:41.137Z,53.78
2022-12-12T03:49:13.401Z,53.91
2022-12-12T03:52:59.206Z,53.18
2022-12-12T03:56:42.879Z,52.45
2022-12-12T04:00:14.800Z,51.39
2022-12-12T04:04:08.448Z,52.17
2022-12-12T04:07:37.803Z,52.04
2022-12-12T04:11:33.541Z,52.64
2022-12-12T04:15:52.643Z,52.28
2022-12-12T04:20:21.858Z,51.93
2022-12-12T04:24:04.629Z,51.38
2022-12-12T04:27:39.483Z,51.08
2022-12-12T04:31:05.517Z,51.55
2022-12-12T04:34:56.203Z,52.42
2022-12-12T04:38:23.979Z,51.58
2022-12-12T04:41:49.457Z,51.19
2022-12-12T04:45:20.301Z,54.37
2022-12-12T04:48:53.341Z,51.86
2022-12-12T04:52:20.889Z,50.04
2022-12-12T04:55:48.233Z,49.15
2022-12-12T04:59:10.143Z,48.78
2022-12-12T05:02:54.614Z,48.03
2022-12-12T05:06:27.168Z,47.74
2022-12-12T05:09:50.128Z,47.49
2022-12-12T05:13:19.277Z,47.82
2022-12-12T05:16:54.534Z,49.47
2022-12-12T05:20:16.589Z,49.63
2022-12-12T05:23:38.536Z,49.77
2022-12-12T05:27:00.608Z,55.88
2022-12-12T05:30:23.928Z,53.46
2022-12-12T05:33:46.263Z,53.66
2022-12-12T05:37:08.164Z,49.73
2022-12-12T05:40:30.009Z,49.05
2022-12-12T05:43:52.127Z,50.27
2022-12-12T05:47:13.920Z,49.12
2022-12-12T05:50:35.701Z,48.48
2022-12-12T05:53:57.788Z,47.98
2022-12-12T05:57:19.750Z,47.02
2022-12-12T06:00:41.620Z,46.51
2022-12-12T06:04:03.929Z,45.65
2022-12-12T06:07:25.807Z,45.41
2022-12-12T06:10:47.592Z,44.99
2022-12-12T06:14:09.396Z,45.12
2022-12-12T06:17:33.257Z,44.77
2022-12-12T06:21:07.153Z,44.98
2022-12-12T06:24:29.013Z,45.31
2022-12-12T06:27:51.240Z,45.53
2022-12-12T06:31:14.527Z,45.80
2022-12-12T06:34:38.948Z,46.17
2022-12-12T06:38:00.729Z,46.47
2022-12-12T06:41:24.793Z,46.30
2022-12-12T06:44:46.600Z,46.62
2022-12-12T06:48:08.396Z,46.56
2022-12-12T06:51:36.234Z,45.94
2022-12-12T06:54:57.960Z,46.31
2022-12-12T06:58:19.904Z,45.87
2022-12-12T07:01:41.738Z,46.31
2022-12-12T07:05:03.889Z,46.16
2022-12-12T07:08:28.135Z,46.91
2022-12-12T07:11:50.021Z,47.01
2022-12-12T07:15:12.390Z,47.38
2022-12-12T07:18:34.973Z,49.28
2022-12-12T07:21:56.826Z,47.56
2022-12-12T07:25:18.733Z,47.67
2022-12-12T07:28:40.664Z,49.78
2022-12-12T07:32:02.480Z,50.11
2022-12-12T07:35:24.399Z,48.59
2022-12-12T07:38:46.233Z,48.62
2022-12-12T07:42:08.201Z,48.43
2022-12-12T07:45:30.463Z,48.33
2022-12-12T07:48:53.704Z,47.54
2022-12-12T07:52:15.502Z,48.21
2022-12-12T07:55:40.312Z,45.95
2022-12-12T07:59:02.047Z,45.27
2022-12-12T08:02:24.135Z,45.59
2022-12-12T08:05:45.910Z,45.44
2022-12-12T08:09:07.930Z,46.58
2022-12-12T08:12:31.690Z,46.77
2022-12-12T08:15:53.554Z,47.18
2022-12-12T08:19:15.666Z,46.92
2022-12-12T08:22:37.562Z,53.92
2022-12-12T08:26:10.961Z,55.89
2022-12-12T08:29:32.789Z,56.31
2022-12-12T08:32:54.656Z,56.65
2022-12-12T08:36:24.515Z,56.46
2022-12-12T08:39:48.403Z,51.41
2022-12-12T08:43:13.285Z,48.43
2022-12-12T08:46:35.500Z,53.94
2022-12-12T08:49:57.343Z,48.64
2022-12-12T08:53:19.102Z,47.38
2022-12-12T08:56:41.272Z,46.89
2022-12-12T09:00:04.987Z,46.35
2022-12-12T09:03:29.390Z,46.40
2022-12-12T09:06:51.687Z,45.73
2022-12-12T09:10:13.452Z,45.78
2022-12-12T09:13:36.808Z,52.55
2022-12-12T09:16:58.530Z,54.30
2022-12-12T09:20:20.314Z,54.38
2022-12-12T09:23:42.216Z,55.06
2022-12-12T09:27:04.364Z,54.95
2022-12-12T09:30:26.211Z,55.25
2022-12-12T09:33:48.034Z,55.01
2022-12-12T09:37:09.989Z,55.13
2022-12-12T09:41:00.092Z,55.17
2022-12-12T09:44:26.179Z,55.28
2022-12-12T09:48:02.671Z,54.89
2022-12-12T09:51:24.866Z,55.36
2022-12-12T09:54:46.790Z,54.85
2022-12-12T09:58:30.262Z,55.45
2022-12-12T10:02:10.981Z,55.58
2022-12-12T10:06:13.871Z,56.29
2022-12-12T10:10:06.764Z,55.77
2022-12-12T10:13:34.243Z,55.12
2022-12-12T10:16:59.321Z,54.90
2022-12-12T10:20:27.178Z,54.66
2022-12-12T10:24:02.594Z,54.76
2022-12-12T10:27:25.040Z,54.60
2022-12-12T10:31:20.309Z,54.59
2022-12-12T10:35:22.776Z,54.38
2022-12-12T10:39:14.846Z,54.43
2022-12-12T10:43:19.837Z,54.14
2022-12-12T10:46:48.267Z,54.32
2022-12-12T10:50:46.556Z,54.23
2022-12-12T10:54:19.184Z,47.02
2022-12-12T10:57:41.055Z,47.01
2022-12-12T11:01:12.496Z,45.59
2022-12-12T11:04:34.957Z,45.35
2022-12-12T11:08:26.109Z,44.75
2022-12-12T11:12:09.632Z,44.66
2022-12-12T11:16:13.141Z,44.76
2022-12-12T11:19:39.182Z,44.96
2022-12-12T11:23:01.363Z,44.29
2022-12-12T11:26:26.612Z,46.41
2022-12-12T11:30:24.969Z,44.41
2022-12-12T11:33:56.786Z,44.62
2022-12-12T11:37:23.306Z,44.58
2022-12-12T11:40:57.342Z,44.05
2022-12-12T11:44:27.227Z,43.82
2022-12-12T11:47:49.377Z,44.01
2022-12-12T11:51:11.541Z,46.79
2022-12-12T11:54:34.281Z,48.83
2022-12-12T11:58:22.355Z,45.83
2022-12-12T12:02:30.291Z,44.73
2022-12-12T12:06:18.989Z,43.60
2022-12-12T12:10:08.168Z,43.89
2022-12-12T12:14:19.570Z,44.23
2022-12-12T12:18:06.076Z,43.70
2022-12-12T12:21:44.779Z,43.67
2022-12-12T12:25:47.369Z,44.02
2022-12-12T12:30:03.569Z,43.77
2022-12-12T12:34:00.557Z,43.69
2022-12-12T12:37:41.885Z,44.21
2022-12-12T12:41:45.296Z,44.06
2022-12-12T12:45:28.148Z,43.81
2022-12-12T12:49:04.957Z,43.48
2022-12-12T12:52:39.773Z,43.81
2022-12-12T12:56:19.037Z,43.63
2022-12-12T12:59:52.439Z,44.20
2022-12-12T13:03:24.386Z,44.08
2022-12-12T13:07:29.684Z,43.71
2022-12-12T13:10:59.999Z,43.78
2022-12-12T13:14:52.035Z,44.06
2022-12-12T13:18:17.482Z,43.98
2022-12-12T13:22:12.669Z,44.05
2022-12-12T13:25:37.331Z,43.90
2022-12-12T13:29:25.200Z,44.31
2022-12-12T13:33:08.788Z,44.04
2022-12-12T13:36:43.744Z,44.26
2022-12-12T13:40:08.314Z,50.59
2022-12-12T13:43:32.959Z,52.90
2022-12-12T13:46:54.721Z,52.92
2022-12-12T13:50:23.150Z,53.02
2022-12-12T13:53:45.041Z,53.24
2022-12-12T13:57:14.614Z,52.98
2022-12-12T14:00:41.493Z,45.62
2022-12-12T14:04:04.033Z,50.36
2022-12-12T14:07:25.818Z,46.50
2022-12-12T14:11:02.418Z,46.20
2022-12-12T14:14:25.191Z,51.62
2022-12-12T14:17:59.207Z,52.78
2022-12-12T14:21:46.919Z,52.95
2022-12-12T14:25:11.653Z,53.30
2022-12-12T14:28:34.292Z,53.09
2022-12-12T14:32:10.972Z,53.66
2022-12-12T14:35:55.642Z,53.97
2022-12-12T14:39:47.893Z,51.61
2022-12-12T14:43:25.940Z,53.79
2022-12-12T14:46:48.042Z,53.78
2022-12-12T14:50:16.688Z,53.72
2022-12-12T14:53:38.565Z,51.90
2022-12-12T14:57:01.329Z,53.84
2022-12-12T15:00:23.576Z,51.49
2022-12-12T15:03:50.842Z,53.25
2022-12-12T15:07:31.157Z,49.17
2022-12-12T15:10:59.642Z,52.86
2022-12-12T15:14:27.438Z,53.75
2022-12-12T15:17:51.481Z,51.09
2022-12-12T15:21:15.365Z,46.18
2022-12-12T15:24:40.055Z,52.60
2022-12-12T15:28:02.765Z,47.19
2022-12-12T15:31:25.433Z,47.95
2022-12-12T15:35:01.145Z,53.99
2022-12-12T15:38:23.593Z,54.43
2022-12-12T15:41:47.758Z,54.58
2022-12-12T15:45:21.625Z,52.89
2022-12-12T15:48:45.649Z,54.36
2022-12-12T15:52:30.649Z,48.01
2022-12-12T15:56:15.391Z,46.70
2022-12-12T15:59:37.552Z,51.21
2022-12-12T16:03:09.619Z,53.48
2022-12-12T16:06:39.486Z,53.97
2022-12-12T16:10:24.376Z,55.07
2022-12-12T16:13:46.647Z,55.73
2022-12-12T16:17:19.268Z,48.09
2022-12-12T16:20:57.412Z,55.10
2022-12-12T16:24:26.181Z,54.96
2022-12-12T16:28:13.975Z,48.04
2022-12-12T16:31:35.881Z,47.82
2022-12-12T16:34:57.714Z,46.89
2022-12-12T16:38:20.023Z,49.12
2022-12-12T16:41:42.018Z,46.41
2022-12-12T16:45:04.629Z,46.17
2022-12-12T16:48:33.448Z,45.86
2022-12-12T16:51:55.287Z,46.55
2022-12-12T16:55:23.461Z,48.62
2022-12-12T16:58:45.288Z,54.42
2022-12-12T17:02:25.398Z,55.03
2022-12-12T17:05:48.367Z,54.07
2022-12-12T17:09:10.215Z,47.01
2022-12-12T17:12:33.069Z,51.21
2022-12-12T17:15:55.740Z,51.05
2022-12-12T17:19:17.759Z,45.30
2022-12-12T17:22:40.625Z,44.04
2022-12-12T17:26:04.898Z,43.08
2022-12-12T17:29:27.052Z,42.78
2022-12-12T17:36:30.435Z,46.79
2022-12-12T17:39:52.454Z,43.09
2022-12-12T17:43:15.399Z,42.38
2022-12-12T17:46:38.510Z,42.05
2022-12-12T17:50:00.607Z,41.82
2022-12-12T17:53:22.480Z,41.88
2022-12-12T17:56:44.471Z,41.44
2022-12-12T18:00:07.295Z,41.54
2022-12-12T18:03:35.214Z,42.16
2022-12-12T18:06:57.032Z,44.57
2022-12-12T18:10:18.930Z,43.44
2022-12-12T18:13:42.471Z,43.24
2022-12-12T18:17:04.376Z,43.21
2022-12-12T18:20:31.030Z,43.60
2022-12-12T18:23:53.771Z,43.52
2022-12-12T18:27:15.629Z,50.07
2022-12-12T18:30:38.912Z,51.05
2022-12-12T18:34:01.213Z,46.95
2022-12-12T18:37:22.972Z,45.55
2022-12-12T18:40:44.855Z,44.25
2022-12-12T18:44:10.631Z,44.04
2022-12-12T18:47:32.527Z,44.46
2022-12-12T18:50:54.541Z,45.96
2022-12-12T18:54:17.235Z,46.81
2022-12-12T18:57:39.057Z,48.57
2022-12-12T19:01:08.719Z,48.38
2022-12-12T19:04:30.701Z,48.34
2022-12-12T19:07:52.727Z,49.68
2022-12-12T19:11:17.296Z,47.93
2022-12-12T19:15:07.938Z,48.93
2022-12-12T19:18:21.552Z,49.65
2022-12-12T19:21:43.694Z,48.93
2022-12-12T19:25:06.048Z,49.70
2022-12-12T19:28:28.699Z,50.05
2022-12-12T19:31:56.854Z,50.22
2022-12-12T19:35:20.291Z,50.06
2022-12-12T19:38:42.766Z,49.48
2022-12-12T19:42:04.513Z,49.68
2022-12-12T19:45:26.393Z,50.15
2022-12-12T19:48:49.061Z,50.02
2022-12-12T19:52:14.340Z,49.82
2022-12-12T19:55:36.830Z,49.94
2022-12-12T19:58:59.746Z,50.23
2022-12-12T20:02:21.745Z,50.14
2022-12-12T20:05:43.564Z,49.88
2022-12-12T20:09:05.415Z,50.76
2022-12-12T20:12:27.221Z,59.74
2022-12-12T20:15:49.132Z,56.83
2022-12-12T20:19:12.142Z,63.12
2022-12-12T20:22:34.043Z,64.53
2022-12-12T20:25:55.994Z,62.52
2022-12-12T20:29:19.139Z,54.70
2022-12-12T20:32:40.994Z,56.29
2022-12-12T20:36:12.861Z,55.68
2022-12-12T20:39:37.375Z,58.17
2022-12-12T20:43:03.353Z,59.17
2022-12-12T20:46:30.046Z,55.25
2022-12-12T20:49:51.891Z,55.10
2022-12-12T20:53:13.755Z,54.20
2022-12-12T20:56:36.014Z,54.75
2022-12-12T20:59:57.847Z,55.52
2022-12-12T21:03:19.725Z,55.05
2022-12-12T21:06:47.684Z,56.25
2022-12-12T21:10:10.374Z,57.22
2022-12-12T21:13:32.499Z,56.51
2022-12-12T21:16:54.776Z,55.22
2022-12-12T21:20:16.662Z,55.66
2022-12-12T21:23:39.818Z,57.25
2022-12-12T21:27:01.698Z,57.02
2022-12-12T21:30:23.721Z,56.36
2022-12-12T21:33:46.513Z,56.74
2022-12-12T21:37:08.457Z,56.70
2022-12-12T21:40:31.138Z,56.28
2022-12-12T21:43:54.260Z,55.53
2022-12-12T21:47:16.093Z,55.89
2022-12-12T21:50:38.298Z,56.29
2022-12-12T21:54:00.151Z,57.24
2022-12-12T21:57:24.927Z,51.98
2022-12-12T22:00:46.862Z,51.17
2022-12-12T22:04:12.396Z,53.29
2022-12-12T22:07:35.211Z,57.61
2022-12-12T22:10:59.730Z,58.86
2022-12-12T22:14:22.037Z,58.53
2022-12-12T22:17:44.305Z,59.02
2022-12-12T22:21:10.296Z,59.63
2022-12-12T22:24:32.280Z,59.25
2022-12-12T22:27:54.088Z,57.28
2022-12-12T22:31:16.314Z,55.69
2022-12-12T22:34:38.274Z,55.00
2022-12-12T22:38:00.065Z,56.66
2022-12-12T22:41:23.000Z,56.12
2022-12-12T22:44:44.833Z,54.42
2022-12-12T22:48:06.725Z,55.81
2022-12-12T22:51:32.861Z,56.13
2022-12-12T22:54:55.149Z,55.92
2022-12-12T22:58:17.007Z,56.61
2022-12-12T23:01:39.234Z,53.41
2022-12-12T23:05:02.023Z,51.71
2022-12-12T23:08:23.926Z,51.17
2022-12-12T23:11:46.506Z,51.36
2022-12-12T23:15:09.523Z,51.58
2022-12-12T23:18:31.587Z,55.10
2022-12-12T23:21:53.481Z,54.91
2022-12-12T23:25:15.871Z,52.13
2022-12-12T23:28:39.337Z,53.73
2022-12-12T23:32:02.856Z,53.24
2022-12-12T23:35:24.942Z,52.15
2022-12-12T23:38:47.000Z,55.18
2022-12-12T23:42:08.813Z,56.77
2022-12-12T23:45:30.656Z,56.27
2022-12-12T23:48:52.468Z,54.58
2022-12-12T23:52:14.268Z,56.86
2022-12-12T23:55:36.140Z,56.71
2022-12-12T23:58:59.452Z,57.74
